AirNav   Air Wisconsin Up To $57,000 Bonus
 
 497 users online  

06WN Western Airpark
Yelm, Washington, USA

GOING TO YELM?


FAA INFORMATION EFFECTIVE 25 MARCH 2021

Location

FAA Identifier: 06WN
Lat/Long: 46-55-29.9450N 122-33-10.9400W
46-55.499083N 122-33.182333W
46.9249847,-122.5530389
(estimated)
Elevation: 394 ft. / 120 m (estimated)
Variation: 20E (1985)
From city: 3 miles SE of YELM, WA
Time zone: UTC -7 (UTC -8 during Standard Time)
Zip code: 98597

Airport Operations

Airport use: Private use. Permission required prior to landing
Activation date: 09/1975
Control tower: no
ARTCC: SEATTLE CENTER
FSS: SEATTLE FLIGHT SERVICE STATION
Attendance: UNATNDD
Wind indicator: yes
Segmented circle: no
Lights: SS-SR
Beacon: white-green (lighted land airport)
Operates sunset to sunrise.

Airport Communications

UNICOM: 122.8
WX ASOS at TCM (13 nm N): PHONE 253-982-3434
WX ASOS at OLM (15 nm W): 135.725 (360-754-0781)
WX AWOS-3 at PLU (15 nm NE): 128.575 (253-848-2748)

Nearby radio navigation aids

VOR radial/distance  VOR name  Freq  Var
OLMr082/14.6OLYMPIA VORTAC113.4019E
SEAr179/32.2SEATTLE VORTAC116.8019E

Airport Services

Parking: tiedowns
Airframe service: MINOR
Bottled oxygen: NONE
Bulk oxygen: NONE

Runway Information

Runway 9/27

Dimensions: 2845 x 30 ft. / 867 x 9 m
Surface: asphalt, in good condition
Runway edge lights: low intensity
Runway edge markings: RWY 27 DSPLCD THR MARKED WITH NONSTANDARD CHEVRONS.
RUNWAY 9  RUNWAY 27
Latitude: 46-55.580030N46-55.418138N
Longitude: 122-33.502855W122-32.861825W
Traffic pattern: leftleft
Displaced threshold: 528 ft.64 ft.
Markings: NSTD, in fair conditionNSTD, in fair condition
Obstructions: 100 ft. trees, 67 ft. from runway, 50 ft. left of centerline
RWY 090 STARTING 2545 FT FM RWY THR PWR LINE 120 FT R OF CTRLN 36 FT HIGH. RWY 09 STARTING 2545 FT FM RWY THR MULT TREES 125 FT HIGH 125 FT R OF CTRLN. RWY 09 STARTING 2545 FT FM RWY THR MULT TREES 60 FT L OF CTRLN 60 FT TO 100 FT HIGH.
50 ft. trees, 200 ft. from runway
RWY 27 BRUSH 36 FT FM W END OF RWY 27 - 10 FT L AND 20 FT R OF CNTRLN 8 FT HIGH. RWY 27 MULT TREES UP TO 100 FT STARTING AT W END OF RWY 27 10 FT L OF CNTRLN. RWY 27 MULT TREES UP TO 100 FT STARTING R OF CNTRLN 20 FT AND 63 FT FM W END OF RWY 27.

Airport Ownership and Management from official FAA records

Ownership: Privately-owned
Owner: WESTERN AIRPARK ASSOCIATION
P.O. BOX 57
MCKENNA, WA 98558
Phone 36-561-4948
Manager: RICK FERNALLD
11247 AIRPARK LANE
MCKENNA, WA 98597
Phone 360-458-3349

Airport Operational Statistics

Aircraft based on the field: 36
Single engine airplanes: 34
Multi engine airplanes: 1
Helicopters: 1
    
Aircraft operations: avg 23/week *
92% local general aviation
4% transient general aviation
4% military
* for 12-month period ending 31 December 2005

Additional Remarks

LEFT HAND TFC AT 1200 FT MSL.
HEL LDG ON TARMAC AT SW RUNUP PAD.
AFT DUSK LDG TO W, TKOF E.
CAUTION: LOW LEVEL MILITARY OPNS IN VICINITY OF ARPT.
UNLICENSED ULTRALIGHT PILOTS PROHIBITED.
WATCH FOR DEER ON & INVOF ARPT.
FOR CD CTC SEATTLE APCH AT 206-214-4794.

Instrument Procedures

There are no published instrument procedures at 06WN.

Some nearby airports with instrument procedures:

KGRF - Gray Army Airfield (Joint Base Lewis-McChord) (9 nm N)
KTCM - McChord Field Airport (Joint Base Lewis-McChord) (13 nm N)
KOLM - Olympia Regional Airport (15 nm W)
KPLU - Pierce County Airport - Thun Field (15 nm NE)
KTIW - Tacoma Narrows Airport (21 nm N)
 
Loc | Ops | Rwys | IFR | FBO | Links
Com | Nav | Svcs | Stats | Notes
Area around 06WN (Western Airpark)
 
Road maps at: MapQuest Bing Google
 
Aerial photo
WARNING: Photo may not be current or correct
Aerial photo of 06WN (Western Airpark)
Photo taken 02-Oct-2019
looking southeast.

Do you have a better or more recent aerial photo of Western Airpark that you would like to share? If so, please send us your photo.

 
Sectional chart

 
Airport distance calculator
Flying to Western Airpark? Find the distance to fly.

From to 06WN

Sunrise and sunset
Times for 19-Apr-2021
 Local
(UTC-7)
 Zulu
(UTC)
Morning civil twilight05:4412:44
Sunrise06:1613:16
Sunset20:0303:03
Evening civil twilight20:3503:35

Current date and time
Zulu (UTC)  19-Apr-2021 10:21:52
Local (UTC-7)  19-Apr-2021 03:21:52
 
METAR
KGRF 
9nm N 
190958Z AUTO 00000KT 10SM CLR 08/00 A3018 RMK AO2 SLP223 T00810001 $
KTCM 
12nm N 
190958Z AUTO 18005KT 10SM CLR 05/M00 A3019 RMK AO2 SLP227 T00491003 $
KOLM 
14nm W 
190954Z AUTO 00000KT 10SM CLR 07/02 A3019 RMK AO2 SLP225 T00720017
KPLU 
15nm NE 
190955Z AUTO 00000KT 10SM FEW090 07/01 A3019 RMK AO2
TAF
KGRF 
9nm N 
190500Z 1905/2011 24005KT 9999 SKC QNH3011INS BECMG 1919/1920 33012KT 9999 SKC QNH3009INS BECMG 2003/2004 01005KT 9999 SKC QNH3007INS TX24/1923Z TN07/1914Z
KTCM 
12nm N 
190500Z 1905/2011 VRB05KT 9999 SKC QNH3013INS BECMG 1918/1919 33009KT 9999 SCT150 QNH3017INS BECMG 2002/2003 VRB05KT 9999 SCT060 QNH3015INS TX23/1923Z TN04/1913Z
KOLM 
14nm W 
190536Z 1906/2006 19005KT P6SM SKC FM190900 VRB03KT P6SM SKC FM191600 21004KT P6SM SCT200 FM200000 32004KT P6SM SCT200
NOTAMs
Click for the latest NOTAMs
NOTAMs are issued by the DoD/FAA and will open in a separate window not controlled by AirNav.

 

 
 

Would you like to see your business listed on this page?

 If your business provides an interesting product or service to pilots, flight crews, aircraft, or users of the Western Airpark, you should consider listing it here.  To start the listing process, click on the button below
 
Add a business
 

Other Pages about Western Airpark

Update a link
 
Copyright © AirNav, LLC. All rights reserved. Privacy Policy  Contact